Estación Meteorológica Peña el Pijo (Robertgarden) [ 08/20/17 13:42:38 CEST ]

Fecha Hora Presion(HPa) Temp (°C) Humedad % Rocio (°C) Viento ( m/s) Direccion Lluvia 1Hora(mm) Lluvia 24H(mm) LLuvia Total(mm)
2017-Jun-19 01:01:45 1012.300 18.8 71 13.4         1427.09
2017-Jun-19 02:01:43 1012.400 19.3 69 13.5         1427.09
2017-Jun-19 03:01:38 1012.300 18.3 71 13.0         1427.09
2017-Jun-19 04:01:37 1012.000 17.4 73 12.5         1427.09
2017-Jun-19 05:01:33 1012.000 16.1 76 11.9         1427.09
2017-Jun-19 06:01:41 1012.100 14.9 79 11.3         1427.09
2017-Jun-19 07:01:50 1012.400 13.7 81 10.5         1427.09
2017-Jun-19 08:01:37 1012.700 15.4 84 12.7         1427.09
2017-Jun-19 09:01:44 1013.000 20.4 73 15.4         1427.09
2017-Jun-19 10:01:37 1013.000 25.8 54 15.8         1427.09
2017-Jun-19 11:01:47 1012.800 29.8 39 14.4         1427.09
2017-Jun-19 12:01:50 1012.900 31.2 35 13.8         1427.09
2017-Jun-19 13:02:06 1012.600 33.1 33 14.6         1427.09
2017-Jun-19 14:01:41 1012.400 33.1 31 13.7         1427.09
2017-Jun-19 15:01:57 1012.300 34.3 28 13.0         1427.09
2017-Jun-19 16:01:59 1012.500 31.1 32 12.4         1427.09
2017-Jun-19 17:01:50 1013.000 27.5 36 11.0         1427.09
2017-Jun-19 18:01:48 1012.300 22.6 48 11.0         1427.09
2017-Jun-19 19:01:46 1012.600 24.1 43 10.7         1427.09
2017-Jun-19 20:01:45 1013.900 22.4 50 11.5         1427.09
2017-Jun-19 21:01:37 1013.700 22.4 48 10.8 1.5 N     1427.09
2017-Jun-19 22:01:46 1012.400 21.9 45 9.4         1427.09
2017-Jun-19 23:01:34 1013.300 21.1 50 10.3         1427.09

Temperatura Máxima:34°    Temperatura Mínima:13°
Presión Máxima:1013.900 Hpa    Presión Mínima:1012.000 Hpa


Volver